createdAt,value
2022-10-23T00:00:59.760Z,9.4
2022-10-23T00:03:59.768Z,9.33
2022-10-23T00:06:59.784Z,9.34
2022-10-23T00:09:59.800Z,9.29
2022-10-23T00:12:59.801Z,9.3
2022-10-23T00:15:59.846Z,9.31
2022-10-23T00:18:59.819Z,9.32
2022-10-23T00:21:59.833Z,9.33
2022-10-23T00:24:59.849Z,9.4
2022-10-23T00:27:59.860Z,9.41
2022-10-23T00:30:59.881Z,9.4
2022-10-23T00:33:59.896Z,9.41
2022-10-23T00:36:59.877Z,9.34
2022-10-23T00:39:59.887Z,9.27
2022-10-23T00:42:59.896Z,9.27
2022-10-23T00:45:59.914Z,9.21
2022-10-23T00:48:59.981Z,9.23
2022-10-23T00:51:59.945Z,9.3
2022-10-23T00:54:59.937Z,9.32
2022-10-23T00:57:59.947Z,9.38
2022-10-23T01:00:59.970Z,9.44
2022-10-23T01:03:59.968Z,9.44
2022-10-23T01:06:59.977Z,9.51
2022-10-23T01:10:00.012Z,9.51
2022-10-23T01:13:00.008Z,9.56
2022-10-23T01:16:00.026Z,9.54
2022-10-23T01:19:00.036Z,9.53
2022-10-23T01:22:00.043Z,9.52
2022-10-23T01:25:00.060Z,9.45
2022-10-23T01:28:00.105Z,9.45
2022-10-23T01:31:00.139Z,9.45
2022-10-23T01:34:00.083Z,9.39
2022-10-23T01:37:00.104Z,9.39
2022-10-23T01:40:00.100Z,9.4
2022-10-23T01:43:00.111Z,9.4
2022-10-23T01:46:00.355Z,9.34
2022-10-23T01:49:00.141Z,9.34
2022-10-23T01:52:00.153Z,9.34
2022-10-23T01:55:00.167Z,9.34
2022-10-23T01:58:00.189Z,9.35
2022-10-23T02:01:00.240Z,9.36
2022-10-23T02:04:00.269Z,9.37
2022-10-23T02:07:00.210Z,9.31
2022-10-23T02:10:00.221Z,9.31
2022-10-23T02:13:00.229Z,9.31
2022-10-23T02:16:00.255Z,9.32
2022-10-23T02:19:00.269Z,9.25
2022-10-23T02:22:00.292Z,9.23
2022-10-23T02:25:00.287Z,9.16
2022-10-23T02:28:00.290Z,9.09
2022-10-23T02:31:00.319Z,8.96
2022-10-23T02:34:00.313Z,8.96
2022-10-23T02:37:00.331Z,8.84
2022-10-23T02:40:00.369Z,8.77
2022-10-23T02:43:00.356Z,8.78
2022-10-23T02:46:00.376Z,8.74
2022-10-23T02:49:00.384Z,8.68
2022-10-23T02:52:00.391Z,8.64
2022-10-23T02:55:00.406Z,8.58
2022-10-23T02:58:00.436Z,8.54
2022-10-23T03:01:00.476Z,8.55
2022-10-23T03:04:00.434Z,8.63
2022-10-23T03:07:00.449Z,8.6
2022-10-23T03:10:00.464Z,8.61
2022-10-23T03:13:00.483Z,8.62
2022-10-23T03:16:00.526Z,8.69
2022-10-23T03:19:00.541Z,8.7
2022-10-23T03:22:00.512Z,8.72
2022-10-23T03:25:00.522Z,8.72
2022-10-23T03:28:00.542Z,8.73
2022-10-23T03:31:00.574Z,8.68
2022-10-23T03:34:02.175Z,8.68
2022-10-23T03:37:00.578Z,8.72
2022-10-23T03:40:00.591Z,8.68
2022-10-23T03:43:00.606Z,8.68
2022-10-23T03:46:00.651Z,8.68
2022-10-23T03:49:00.635Z,8.68
2022-10-23T03:52:00.675Z,8.62
2022-10-23T03:55:00.650Z,8.62
2022-10-23T03:58:00.667Z,8.68
2022-10-23T04:01:00.760Z,8.68
2022-10-23T04:04:00.696Z,8.68
2022-10-23T04:07:00.711Z,8.69
2022-10-23T04:10:00.750Z,8.63
2022-10-23T04:13:00.731Z,8.57
2022-10-23T04:16:00.757Z,8.5
2022-10-23T04:19:00.761Z,8.49
2022-10-23T04:22:00.779Z,8.49
2022-10-23T04:25:00.791Z,8.49
2022-10-23T04:28:00.831Z,8.38
2022-10-23T04:31:00.827Z,8.32
2022-10-23T04:34:00.878Z,8.25
2022-10-23T04:37:00.851Z,8.18
2022-10-23T04:40:00.858Z,8.19
2022-10-23T04:43:00.856Z,8.2
2022-10-23T04:46:00.893Z,8.22
2022-10-23T04:49:00.868Z,8.17
2022-10-23T04:52:00.875Z,8.11
2022-10-23T04:55:00.874Z,8.11
2022-10-23T04:58:00.877Z,8.11
2022-10-23T05:01:00.971Z,8.12
2022-10-23T05:04:00.907Z,8.13
2022-10-23T05:07:00.880Z,8.09
2022-10-23T05:10:00.890Z,8.09
2022-10-23T05:13:00.885Z,8.03
2022-10-23T05:16:00.906Z,8.03
2022-10-23T05:19:00.899Z,7.97
2022-10-23T05:22:00.918Z,7.92
2022-10-23T05:25:00.904Z,7.92
2022-10-23T05:28:00.909Z,7.92
2022-10-23T05:31:00.914Z,7.92
2022-10-23T05:34:00.913Z,7.87
2022-10-23T05:37:00.906Z,7.87
2022-10-23T05:40:00.948Z,7.87
2022-10-23T05:43:00.911Z,7.88
2022-10-23T05:46:00.918Z,7.89
2022-10-23T05:49:00.913Z,7.89
2022-10-23T05:52:00.922Z,7.95
2022-10-23T05:55:00.915Z,8.01
2022-10-23T05:58:00.949Z,8.02
2022-10-23T06:01:00.978Z,8.02
2022-10-23T06:04:00.923Z,7.97
2022-10-23T06:07:01.069Z,7.98
2022-10-23T06:10:00.930Z,8.03
2022-10-23T06:13:00.925Z,8.04
2022-10-23T06:16:00.966Z,8.09
2022-10-23T06:19:00.940Z,8.15
2022-10-23T06:22:00.937Z,8.15
2022-10-23T06:25:00.938Z,8.21
2022-10-23T06:28:01.026Z,8.28
2022-10-23T06:31:00.948Z,8.33
2022-10-23T06:34:00.965Z,8.33
2022-10-23T06:37:00.945Z,8.39
2022-10-23T06:40:00.946Z,8.45
2022-10-23T06:43:00.948Z,8.51
2022-10-23T06:46:00.962Z,8.56
2022-10-23T06:49:00.955Z,8.62
2022-10-23T06:52:00.979Z,8.74
2022-10-23T06:55:00.954Z,8.79
2022-10-23T06:58:00.962Z,8.85
2022-10-23T07:01:01.115Z,8.92
2022-10-23T07:04:00.963Z,8.97
2022-10-23T07:07:00.968Z,9.09
2022-10-23T07:10:01.027Z,9.15
2022-10-23T07:13:01.083Z,9.2
2022-10-23T07:16:00.981Z,9.26
2022-10-23T07:19:00.978Z,9.38
2022-10-23T07:22:00.977Z,9.5
2022-10-23T07:25:00.973Z,9.56
2022-10-23T07:28:01.005Z,9.61
2022-10-23T07:31:00.993Z,9.67
2022-10-23T07:34:00.985Z,9.72
2022-10-23T07:37:00.989Z,9.84
2022-10-23T07:40:00.992Z,9.94
2022-10-23T07:43:00.993Z,10.05
2022-10-23T07:46:01.030Z,10.2
2022-10-23T07:49:01.003Z,10.4
2022-10-23T07:52:01.032Z,10.54
2022-10-23T07:55:01.000Z,10.48
2022-10-23T07:58:01.000Z,10.48
2022-10-23T08:01:01.022Z,10.53
2022-10-23T08:04:01.030Z,10.58
2022-10-23T08:07:01.013Z,10.65
2022-10-23T08:10:01.011Z,10.68
2022-10-23T08:13:01.008Z,10.7
2022-10-23T08:16:01.023Z,10.73
2022-10-23T08:19:01.012Z,10.74
2022-10-23T08:22:01.041Z,10.67
2022-10-23T08:25:01.017Z,10.67
2022-10-23T08:28:03.031Z,10.62
2022-10-23T08:31:01.028Z,10.66
2022-10-23T08:34:01.024Z,10.69
2022-10-23T08:37:01.025Z,10.72
2022-10-23T08:40:01.053Z,10.74
2022-10-23T08:43:01.034Z,10.78
2022-10-23T08:46:01.047Z,10.85
2022-10-23T08:49:01.031Z,10.93
2022-10-23T08:52:01.035Z,10.95
2022-10-23T08:55:01.030Z,11
2022-10-23T08:58:01.062Z,11.03
2022-10-23T09:01:01.187Z,11.14
2022-10-23T09:04:01.035Z,11.17
2022-10-23T09:07:01.071Z,11.23
2022-10-23T09:10:01.036Z,11.18
2022-10-23T09:13:01.037Z,11.3
2022-10-23T09:16:01.072Z,11.35
2022-10-23T09:19:01.041Z,11.43
2022-10-23T09:22:01.051Z,11.37
2022-10-23T09:25:01.046Z,11.41
2022-10-23T09:28:02.838Z,11.4
2022-10-23T09:31:01.058Z,11.36
2022-10-23T09:34:01.081Z,11.4
2022-10-23T09:37:01.067Z,11.5
2022-10-23T09:40:01.062Z,11.54
2022-10-23T09:43:01.063Z,11.51
2022-10-23T09:46:01.071Z,11.58
2022-10-23T09:49:02.266Z,11.66
2022-10-23T09:52:01.099Z,11.68
2022-10-23T09:55:01.075Z,11.73
2022-10-23T09:58:01.084Z,11.72
2022-10-23T10:01:01.206Z,11.75
2022-10-23T10:04:01.079Z,11.86
2022-10-23T10:07:01.079Z,11.91
2022-10-23T10:10:01.111Z,11.98
2022-10-23T10:13:01.085Z,12.17
2022-10-23T10:16:01.094Z,12.11
2022-10-23T10:19:01.087Z,12.1
2022-10-23T10:22:01.098Z,12.26
2022-10-23T10:25:01.094Z,12.12
2022-10-23T10:28:01.121Z,12.1
2022-10-23T10:31:01.109Z,12.02
2022-10-23T10:34:01.098Z,12.1
2022-10-23T10:37:01.104Z,12.08
2022-10-23T10:40:01.105Z,12
2022-10-23T10:43:01.118Z,11.94
2022-10-23T10:46:01.158Z,11.97
2022-10-23T10:49:01.145Z,11.98
2022-10-23T10:52:01.187Z,12.01
2022-10-23T10:55:01.181Z,11.94
2022-10-23T10:58:01.189Z,12.01
2022-10-23T11:01:01.312Z,11.99
2022-10-23T11:04:01.216Z,12.06
2022-10-23T11:07:01.195Z,12.08
2022-10-23T11:10:01.201Z,12.06
2022-10-23T11:13:01.195Z,12.06
2022-10-23T11:16:01.210Z,12.05
2022-10-23T11:19:01.200Z,12.04
2022-10-23T11:22:01.232Z,12.11
2022-10-23T11:25:01.208Z,12.11
2022-10-23T11:28:03.506Z,12.14
2022-10-23T11:31:01.218Z,12.19
2022-10-23T11:34:01.212Z,12.25
2022-10-23T11:37:01.212Z,12.29
2022-10-23T11:40:01.240Z,12.37
2022-10-23T11:43:01.210Z,12.37
2022-10-23T11:46:01.227Z,12.33
2022-10-23T11:49:01.248Z,12.37
2022-10-23T11:52:01.222Z,12.46
2022-10-23T11:55:01.218Z,12.5
2022-10-23T11:58:01.263Z,12.37
2022-10-23T12:01:01.277Z,12.53
2022-10-23T12:04:01.231Z,12.55
2022-10-23T12:07:01.229Z,12.62
2022-10-23T12:10:01.239Z,12.66
2022-10-23T12:13:01.232Z,12.56
2022-10-23T12:16:01.328Z,12.57
2022-10-23T12:19:01.235Z,12.56
2022-10-23T12:22:01.233Z,12.32
2022-10-23T12:25:01.243Z,12.28
2022-10-23T12:28:01.243Z,12.28
2022-10-23T12:31:01.382Z,12.44
2022-10-23T12:34:01.272Z,12.46
2022-10-23T12:37:01.243Z,12.48
2022-10-23T12:40:01.248Z,12.48
2022-10-23T12:43:01.257Z,12.49
2022-10-23T12:46:01.254Z,12.51
2022-10-23T12:49:01.252Z,12.55
2022-10-23T12:52:01.288Z,12.48
2022-10-23T12:55:01.263Z,12.42
2022-10-23T12:58:01.263Z,12.41
2022-10-23T13:01:01.346Z,12.37
2022-10-23T13:04:01.268Z,12.28
2022-10-23T13:07:01.270Z,12.48
2022-10-23T13:10:01.454Z,12.38
2022-10-23T13:13:01.278Z,12.28
2022-10-23T13:16:01.280Z,12.16
2022-10-23T13:19:01.283Z,12.28
2022-10-23T13:22:01.288Z,12.3
2022-10-23T13:25:01.289Z,12.33
2022-10-23T13:28:01.320Z,12.35
2022-10-23T13:31:01.298Z,12.31
2022-10-23T13:34:01.306Z,12.27
2022-10-23T13:37:01.304Z,12.3
2022-10-23T13:40:01.310Z,12.24
2022-10-23T13:43:01.313Z,12.23
2022-10-23T13:46:01.404Z,12.24
2022-10-23T13:49:01.317Z,12.34
2022-10-23T13:52:01.325Z,12.36
2022-10-23T13:55:01.323Z,12.45
2022-10-23T13:58:01.325Z,12.42
2022-10-23T14:01:01.432Z,12.41
2022-10-23T14:04:01.364Z,12.41
2022-10-23T14:07:01.341Z,12.47
2022-10-23T14:10:01.344Z,12.43
2022-10-23T14:13:01.351Z,12.48
2022-10-23T14:16:01.359Z,12.4
2022-10-23T14:19:01.360Z,12.38
2022-10-23T14:22:01.395Z,12.34
2022-10-23T14:25:01.378Z,12.28
2022-10-23T14:28:01.377Z,12.22
2022-10-23T14:31:01.382Z,12.17
2022-10-23T14:34:01.381Z,12.18
2022-10-23T14:37:08.707Z,12.17
2022-10-23T14:40:01.418Z,12.15
2022-10-23T14:43:01.397Z,12.12
2022-10-23T14:46:01.407Z,12.11
2022-10-23T14:49:02.544Z,12.15
2022-10-23T14:52:01.411Z,12.14
2022-10-23T14:55:01.417Z,12.1
2022-10-23T14:58:01.443Z,12.07
2022-10-23T15:01:01.469Z,12.12
2022-10-23T15:04:01.435Z,12.07
2022-10-23T15:07:01.432Z,12.1
2022-10-23T15:10:01.443Z,12.05
2022-10-23T15:13:01.442Z,12.08
2022-10-23T15:16:01.473Z,12.05
2022-10-23T15:19:01.453Z,12.08
2022-10-23T15:22:01.458Z,12
2022-10-23T15:25:01.467Z,12.03
2022-10-23T15:28:01.470Z,12.08
2022-10-23T15:31:01.474Z,12.03
2022-10-23T15:34:01.505Z,12.09
2022-10-23T15:37:01.486Z,12.05
2022-10-23T15:40:02.439Z,12.06
2022-10-23T15:43:01.495Z,12.11
2022-10-23T15:46:01.502Z,12.06
2022-10-23T15:49:01.509Z,12.02
2022-10-23T15:52:01.552Z,12.05
2022-10-23T15:55:01.534Z,11.99
2022-10-23T15:58:01.529Z,11.97
2022-10-23T16:01:01.652Z,11.99
2022-10-23T16:04:01.545Z,11.99
2022-10-23T16:07:01.540Z,11.95
2022-10-23T16:10:01.621Z,11.97
2022-10-23T16:13:01.552Z,11.93
2022-10-23T16:16:01.566Z,11.96
2022-10-23T16:19:01.569Z,11.9
2022-10-23T16:22:01.579Z,11.91
2022-10-23T16:25:01.576Z,11.86
2022-10-23T16:28:01.604Z,11.88
2022-10-23T16:31:01.593Z,11.87
2022-10-23T16:34:01.597Z,11.77
2022-10-23T16:37:01.609Z,11.76
2022-10-23T16:40:01.613Z,11.74
2022-10-23T16:43:01.624Z,11.66
2022-10-23T16:46:01.649Z,11.66
2022-10-23T16:49:01.633Z,11.57
2022-10-23T16:52:01.639Z,11.55
2022-10-23T16:55:01.661Z,11.55
2022-10-23T16:58:01.661Z,11.55
2022-10-23T17:01:01.860Z,11.48
2022-10-23T17:04:01.693Z,11.48
2022-10-23T17:07:01.671Z,11.45
2022-10-23T17:10:01.677Z,11.38
2022-10-23T17:13:01.690Z,11.38
2022-10-23T17:16:01.705Z,11.38
2022-10-23T17:19:01.704Z,11.37
2022-10-23T17:22:01.729Z,11.35
2022-10-23T17:25:01.714Z,11.34
2022-10-23T17:28:01.723Z,11.34
2022-10-23T17:31:01.727Z,11.33
2022-10-23T17:34:01.733Z,11.27
2022-10-23T17:37:01.742Z,11.28
2022-10-23T17:40:01.847Z,11.23
2022-10-23T17:43:01.753Z,11.23
2022-10-23T17:46:01.772Z,11.23
2022-10-23T17:52:01.780Z,11.17
2022-10-23T17:55:01.782Z,11.16
2022-10-23T17:58:01.822Z,11.17
2022-10-23T18:01:01.920Z,11.13
2022-10-23T18:04:01.821Z,11.13
2022-10-23T18:07:01.839Z,11.08
2022-10-23T18:10:01.827Z,11.12
2022-10-23T18:13:01.837Z,11.05
2022-10-23T18:16:01.862Z,11.05
2022-10-23T18:19:01.848Z,11.05
2022-10-23T18:22:01.861Z,11.04
2022-10-23T18:25:01.859Z,11.09
2022-10-23T18:28:02.553Z,11.06
2022-10-23T18:31:01.878Z,11.05
2022-10-23T18:34:01.909Z,11.08
2022-10-23T18:37:01.900Z,11.07
2022-10-23T18:40:01.903Z,11.1
2022-10-23T18:43:01.914Z,11.14
2022-10-23T18:46:01.924Z,11.11
2022-10-23T18:49:01.936Z,11.15
2022-10-23T18:52:01.962Z,11.13
2022-10-23T18:55:01.947Z,11.11
2022-10-23T18:58:01.948Z,11.1
2022-10-23T19:01:02.093Z,11.15
2022-10-23T19:04:01.972Z,11.09
2022-10-23T19:07:01.987Z,11.09
2022-10-23T19:10:02.025Z,11.11
2022-10-23T19:13:02.013Z,11.08
2022-10-23T19:16:02.003Z,11.12
2022-10-23T19:19:02.015Z,11.1
2022-10-23T19:22:02.030Z,11.12
2022-10-23T19:25:02.049Z,11.17
2022-10-23T19:28:02.077Z,11.15
2022-10-23T19:31:02.052Z,11.18
2022-10-23T19:34:02.056Z,11.12
2022-10-23T19:37:02.158Z,11.17
2022-10-23T19:40:02.097Z,11.13
2022-10-23T19:43:02.094Z,11.17
2022-10-23T19:46:03.072Z,11.21
2022-10-23T19:49:02.108Z,11.26
2022-10-23T19:52:02.127Z,11.23
2022-10-23T19:55:02.139Z,11.28
2022-10-23T19:58:02.138Z,11.26
2022-10-23T20:01:02.179Z,11.34
2022-10-23T20:04:02.192Z,11.35
2022-10-23T20:07:02.171Z,11.35
2022-10-23T20:10:02.179Z,11.41
2022-10-23T20:13:18.531Z,11.4
2022-10-23T20:16:02.208Z,11.38
2022-10-23T20:19:02.323Z,11.41
2022-10-23T20:22:02.254Z,11.37
2022-10-23T20:25:02.233Z,11.39
2022-10-23T20:28:02.250Z,11.42
2022-10-23T20:31:02.264Z,11.45
2022-10-23T20:34:02.271Z,11.4
2022-10-23T20:37:02.287Z,11.42
2022-10-23T20:40:02.337Z,11.45
2022-10-23T20:43:02.307Z,11.47
2022-10-23T20:46:02.311Z,11.48
2022-10-23T20:49:02.322Z,11.44
2022-10-23T20:52:02.334Z,11.46
2022-10-23T20:55:02.348Z,11.49
2022-10-23T20:58:02.390Z,11.5
2022-10-23T21:01:02.443Z,11.44
2022-10-23T21:04:02.386Z,11.45
2022-10-23T21:07:09.739Z,11.46
2022-10-23T21:10:02.409Z,11.46
2022-10-23T21:13:02.423Z,11.46
2022-10-23T21:16:02.459Z,11.46
2022-10-23T21:19:02.441Z,11.46
2022-10-23T21:22:02.457Z,11.46
2022-10-23T21:25:02.467Z,11.48
2022-10-23T21:28:02.491Z,11.41
2022-10-23T21:31:02.500Z,11.42
2022-10-23T21:34:02.602Z,11.43
2022-10-23T21:37:17.878Z,11.44
2022-10-23T21:40:02.530Z,11.44
2022-10-23T21:43:02.546Z,11.45
2022-10-23T21:46:02.576Z,11.47
2022-10-23T21:49:02.582Z,11.4
2022-10-23T21:52:02.624Z,11.41
2022-10-23T21:55:02.605Z,11.41
2022-10-23T21:58:02.623Z,11.36
2022-10-23T22:01:02.687Z,11.37
2022-10-23T22:04:02.657Z,11.39
2022-10-23T22:07:02.690Z,11.39
2022-10-23T22:10:02.700Z,11.33
2022-10-23T22:13:02.691Z,11.33
2022-10-23T22:16:02.702Z,11.27
2022-10-23T22:19:02.705Z,11.28
2022-10-23T22:22:02.708Z,11.28
2022-10-23T22:25:02.695Z,11.22
2022-10-23T22:28:02.735Z,11.24
2022-10-23T22:31:02.714Z,11.17
2022-10-23T22:34:08.460Z,11.17
2022-10-23T22:37:02.718Z,11.1
2022-10-23T22:40:02.711Z,11.1
2022-10-23T22:43:02.717Z,11.03
2022-10-23T22:46:02.740Z,11.04
2022-10-23T22:49:02.819Z,11.05
2022-10-23T22:52:02.720Z,10.98
2022-10-23T22:55:02.730Z,11
2022-10-23T22:58:02.730Z,11
2022-10-23T23:01:02.777Z,10.94
2022-10-23T23:04:08.590Z,10.88
2022-10-23T23:07:02.728Z,10.88
2022-10-23T23:10:02.734Z,10.82
2022-10-23T23:13:02.732Z,10.75
2022-10-23T23:16:02.734Z,10.76
2022-10-23T23:19:02.731Z,10.76
2022-10-23T23:22:02.764Z,10.69
2022-10-23T23:25:02.735Z,10.63
2022-10-23T23:28:02.740Z,10.56
2022-10-23T23:31:02.738Z,10.64
2022-10-23T23:34:02.745Z,10.66
2022-10-23T23:37:02.744Z,10.74
2022-10-23T23:40:02.774Z,10.83
2022-10-23T23:43:02.745Z,10.84
2022-10-23T23:46:02.747Z,10.85
2022-10-23T23:49:02.751Z,10.78
2022-10-23T23:52:02.746Z,10.73
2022-10-23T23:55:02.747Z,10.72
2022-10-23T23:58:02.783Z,10.65
